createdAt,value
2023-05-24T00:01:37.597Z,15.73
2023-05-24T00:04:04.477Z,15.23
2023-05-24T00:06:35.086Z,13.15
2023-05-24T00:09:02.189Z,14.90
2023-05-24T00:11:28.887Z,10.73
2023-05-24T00:13:55.592Z,21.48
2023-05-24T00:16:22.412Z,16.23
2023-05-24T00:18:49.548Z,13.48
2023-05-24T00:21:16.467Z,12.98
2023-05-24T00:23:44.067Z,11.77
2023-05-24T00:26:10.798Z,14.27
2023-05-24T00:28:37.376Z,16.33
2023-05-24T00:31:04.020Z,18.23
2023-05-24T00:33:30.583Z,16.08
2023-05-24T00:35:57.318Z,17.35
2023-05-24T00:38:25.226Z,17.75
2023-05-24T00:40:51.960Z,16.42
2023-05-24T00:43:19.214Z,16.30
2023-05-24T00:45:45.898Z,17.20
2023-05-24T00:48:12.854Z,17.23
2023-05-24T00:50:40.433Z,19.17
2023-05-24T00:53:07.903Z,21.83
2023-05-24T00:55:36.644Z,13.48
2023-05-24T00:58:03.252Z,17.88
2023-05-24T01:00:30.593Z,15.68
2023-05-24T01:02:57.285Z,15.18
2023-05-24T01:05:25.197Z,17.98
2023-05-24T01:08:02.751Z,16.55
2023-05-24T01:10:35.022Z,14.38
2023-05-24T01:13:20.294Z,17.02
2023-05-24T01:15:55.924Z,14.18
2023-05-24T01:18:32.896Z,16.67
2023-05-24T01:21:21.268Z,18.77
2023-05-24T01:23:53.481Z,15.40
2023-05-24T01:26:32.049Z,17.60
2023-05-24T01:29:01.040Z,19.48
2023-05-24T01:31:28.102Z,18.95
2023-05-24T01:33:54.696Z,17.38
2023-05-24T01:36:21.341Z,14.73
2023-05-24T01:38:49.087Z,20.73
2023-05-24T01:41:27.314Z,16.95
2023-05-24T01:44:08.477Z,21.35
2023-05-24T01:46:39.078Z,18.10
2023-05-24T01:49:27.339Z,20.25
2023-05-24T01:52:12.650Z,17.60
2023-05-24T01:54:44.814Z,15.38
2023-05-24T01:57:11.921Z,15.97
2023-05-24T01:59:42.634Z,16.27
2023-05-24T02:02:10.963Z,14.20
2023-05-24T02:04:38.061Z,16.80
2023-05-24T02:07:04.928Z,21.33
2023-05-24T02:09:31.472Z,18.33
2023-05-24T02:11:58.074Z,13.15
2023-05-24T02:14:25.034Z,11.93
2023-05-24T02:16:51.851Z,22.38
2023-05-24T02:19:18.532Z,15.40
2023-05-24T02:21:45.539Z,14.82
2023-05-24T02:24:13.428Z,21.30
2023-05-24T02:26:40.314Z,15.93
2023-05-24T02:29:06.888Z,16.27
2023-05-24T02:31:34.893Z,15.27
2023-05-24T02:34:02.941Z,15.27
2023-05-24T02:36:29.720Z,17.63
2023-05-24T02:38:56.780Z,17.85
2023-05-24T02:41:23.291Z,13.75
2023-05-24T02:43:50.078Z,20.60
2023-05-24T02:46:17.782Z,19.58
2023-05-24T02:48:44.493Z,15.73
2023-05-24T02:51:11.174Z,17.00
2023-05-24T02:53:37.688Z,14.47
2023-05-24T02:56:04.307Z,15.48
2023-05-24T02:58:30.849Z,15.73
2023-05-24T03:00:57.440Z,14.87
2023-05-24T03:03:24.170Z,15.77
2023-05-24T03:05:50.830Z,19.08
2023-05-24T03:08:17.356Z,16.98
2023-05-24T03:10:44.263Z,16.95
2023-05-24T03:13:11.069Z,15.33
2023-05-24T03:15:37.801Z,17.20
2023-05-24T03:18:04.401Z,19.35
2023-05-24T03:20:31.244Z,16.98
2023-05-24T03:22:57.892Z,12.88
2023-05-24T03:25:24.471Z,19.02
2023-05-24T03:27:51.000Z,18.95
2023-05-24T03:30:17.558Z,15.57
2023-05-24T03:32:44.261Z,13.37
2023-05-24T03:35:12.180Z,14.67
2023-05-24T03:37:39.069Z,18.23
2023-05-24T03:40:06.596Z,18.40
2023-05-24T03:42:35.280Z,14.57
2023-05-24T03:45:01.929Z,19.47
2023-05-24T03:47:28.512Z,16.80
2023-05-24T03:49:55.357Z,20.30
2023-05-24T03:52:21.882Z,22.73
2023-05-24T03:54:49.327Z,20.57
2023-05-24T03:57:16.005Z,17.23
2023-05-24T03:59:42.614Z,20.60
2023-05-24T04:02:09.448Z,16.43
2023-05-24T04:04:37.065Z,20.20
2023-05-24T04:07:03.894Z,18.37
2023-05-24T04:09:30.443Z,17.27
2023-05-24T04:11:57.019Z,16.33
2023-05-24T04:14:23.579Z,15.77
2023-05-24T04:16:50.137Z,18.37
2023-05-24T04:19:16.682Z,18.13
2023-05-24T04:21:43.406Z,16.50
2023-05-24T04:24:10.028Z,17.88
2023-05-24T04:26:37.726Z,16.03
2023-05-24T04:29:04.655Z,17.17
2023-05-24T04:31:34.246Z,19.80
2023-05-24T04:34:01.006Z,16.50
2023-05-24T04:36:28.989Z,18.23
2023-05-24T04:38:57.516Z,16.37
2023-05-24T04:41:24.425Z,15.57
2023-05-24T04:43:51.129Z,13.98
2023-05-24T04:46:18.809Z,11.13
2023-05-24T04:48:45.546Z,15.98
2023-05-24T04:51:12.849Z,15.38
2023-05-24T04:53:40.494Z,18.23
2023-05-24T04:56:07.254Z,18.88
2023-05-24T04:58:33.962Z,15.38
2023-05-24T05:01:02.825Z,19.75
2023-05-24T05:03:29.536Z,17.13
2023-05-24T05:05:56.557Z,15.05
2023-05-24T05:08:50.374Z,13.38
2023-05-24T05:11:18.660Z,16.58
2023-05-24T05:13:45.864Z,14.35
2023-05-24T05:16:13.310Z,11.52
2023-05-24T05:18:39.902Z,14.98
2023-05-24T05:21:06.568Z,13.75
2023-05-24T05:23:36.655Z,17.77
2023-05-24T05:26:09.189Z,12.30
2023-05-24T05:28:35.640Z,10.63
2023-05-24T05:31:02.149Z,17.05
2023-05-24T05:33:28.823Z,13.75
2023-05-24T05:35:55.392Z,13.18
2023-05-24T05:38:21.929Z,9.63
2023-05-24T05:40:48.462Z,15.50
2023-05-24T05:43:15.483Z,11.82
2023-05-24T05:45:42.133Z,10.55
2023-05-24T05:48:08.886Z,10.65
2023-05-24T05:50:35.904Z,12.40
2023-05-24T05:53:02.488Z,11.68
2023-05-24T05:55:29.153Z,10.75
2023-05-24T05:57:55.724Z,11.80
2023-05-24T06:00:26.746Z,10.25
2023-05-24T06:02:53.416Z,8.80
2023-05-24T06:06:06.705Z,12.90
2023-05-24T06:09:18.130Z,9.18
2023-05-24T06:11:47.489Z,12.48
2023-05-24T06:14:23.243Z,10.43
2023-05-24T06:16:57.819Z,10.35
2023-05-24T06:19:25.252Z,11.18
2023-05-24T06:21:54.248Z,11.85
2023-05-24T06:24:21.437Z,12.05
2023-05-24T06:27:05.577Z,11.52
2023-05-24T06:29:34.127Z,9.98
2023-05-24T06:32:00.857Z,11.13
2023-05-24T06:34:28.301Z,10.25
2023-05-24T06:36:54.781Z,11.70
2023-05-24T06:39:21.420Z,9.85
2023-05-24T06:41:51.164Z,11.95
2023-05-24T06:44:18.145Z,12.48
2023-05-24T06:46:44.703Z,12.32
2023-05-24T06:49:12.433Z,9.57
2023-05-24T06:51:39.777Z,12.45
2023-05-24T06:54:06.719Z,10.38
2023-05-24T06:56:33.338Z,12.70
2023-05-24T06:58:59.972Z,9.95
2023-05-24T07:01:37.126Z,8.45
2023-05-24T07:04:06.475Z,12.85
2023-05-24T07:06:33.284Z,9.07
2023-05-24T07:09:01.828Z,12.50
2023-05-24T07:11:29.686Z,8.85
2023-05-24T07:14:16.739Z,10.02
2023-05-24T07:16:43.259Z,11.18
2023-05-24T07:19:46.157Z,8.32
2023-05-24T07:22:19.706Z,8.00
2023-05-24T07:25:28.027Z,8.85
2023-05-24T07:27:55.129Z,8.75
2023-05-24T07:30:31.594Z,11.30
2023-05-24T07:32:59.389Z,12.68
2023-05-24T07:35:26.422Z,9.95
2023-05-24T07:37:53.656Z,5.63
2023-05-24T07:40:20.986Z,8.73
2023-05-24T07:42:50.624Z,9.80
2023-05-24T07:45:17.649Z,9.63
2023-05-24T07:47:44.424Z,11.10
2023-05-24T07:50:11.838Z,6.65
2023-05-24T07:52:41.201Z,6.10
2023-05-24T07:55:10.332Z,7.53
2023-05-24T07:57:37.052Z,7.13
2023-05-24T08:00:10.533Z,9.23
2023-05-24T08:02:38.875Z,12.63
2023-05-24T08:05:05.996Z,7.90
2023-05-24T08:07:32.892Z,8.90
2023-05-24T08:09:59.624Z,8.10
2023-05-24T08:12:26.425Z,10.07
2023-05-24T08:14:54.916Z,7.35
2023-05-24T08:17:21.654Z,8.25
2023-05-24T08:19:48.395Z,8.38
2023-05-24T08:22:15.979Z,9.85
2023-05-24T08:24:42.801Z,7.97
2023-05-24T08:27:09.960Z,9.27
2023-05-24T08:29:37.681Z,9.05
2023-05-24T08:32:09.464Z,9.75
2023-05-24T08:34:37.730Z,8.85
2023-05-24T08:37:06.087Z,8.05
2023-05-24T08:39:32.785Z,10.65
2023-05-24T08:44:37.609Z,7.68
2023-05-24T08:47:07.643Z,7.32
2023-05-24T08:49:37.737Z,8.27
2023-05-24T08:52:07.779Z,9.95
2023-05-24T08:54:38.743Z,7.50
2023-05-24T08:57:07.008Z,10.13
2023-05-24T08:59:33.990Z,5.30
2023-05-24T09:02:02.655Z,7.88
2023-05-24T09:04:31.008Z,10.48
2023-05-24T09:07:01.534Z,7.80
2023-05-24T09:09:29.231Z,7.43
2023-05-24T09:12:02.235Z,7.65
2023-05-24T09:14:29.417Z,8.18
2023-05-24T09:16:57.244Z,7.90
2023-05-24T09:19:24.473Z,9.98
2023-05-24T09:21:53.328Z,7.05
2023-05-24T09:24:20.219Z,9.65
2023-05-24T09:26:51.097Z,6.43
2023-05-24T09:29:22.926Z,8.45
2023-05-24T09:31:49.684Z,6.85
2023-05-24T09:34:19.879Z,6.55
2023-05-24T09:36:48.572Z,6.85
2023-05-24T09:39:17.221Z,8.38
2023-05-24T09:41:44.245Z,7.85
2023-05-24T09:44:14.767Z,6.47
2023-05-24T09:46:41.270Z,8.13
2023-05-24T09:49:08.618Z,7.65
2023-05-24T09:51:39.039Z,6.85
2023-05-24T09:54:09.678Z,7.22
2023-05-24T09:56:36.278Z,9.02
2023-05-24T09:59:08.462Z,6.28
2023-05-24T10:01:36.275Z,7.55
2023-05-24T10:04:09.272Z,6.45
2023-05-24T10:06:40.756Z,6.82
2023-05-24T10:09:09.629Z,5.65
2023-05-24T10:11:40.024Z,8.45
2023-05-24T10:14:08.928Z,6.30
2023-05-24T10:16:38.343Z,7.63
2023-05-24T10:19:05.991Z,6.75
2023-05-24T10:21:36.133Z,6.65
2023-05-24T10:24:03.847Z,6.05
2023-05-24T10:26:32.786Z,6.50
2023-05-24T10:29:11.412Z,6.95
2023-05-24T10:31:41.191Z,8.02
2023-05-24T10:34:09.153Z,6.65
2023-05-24T10:36:37.089Z,7.47
2023-05-24T10:39:04.318Z,8.73
2023-05-24T10:41:39.138Z,7.80
2023-05-24T10:44:12.330Z,6.97
2023-05-24T10:47:10.176Z,8.75
2023-05-24T10:49:38.850Z,8.23
2023-05-24T10:52:13.403Z,5.78
2023-05-24T10:54:49.723Z,8.40
2023-05-24T10:57:27.744Z,7.45
2023-05-24T10:59:57.181Z,6.65
2023-05-24T11:02:28.443Z,5.90
2023-05-24T11:04:56.414Z,7.53
2023-05-24T11:07:24.788Z,6.43
2023-05-24T11:09:57.322Z,6.40
2023-05-24T11:12:34.576Z,6.05
2023-05-24T11:15:09.834Z,6.35
2023-05-24T11:18:13.695Z,7.60
2023-05-24T11:20:42.976Z,5.72
2023-05-24T11:23:10.179Z,5.80
2023-05-24T11:25:37.596Z,7.47
2023-05-24T11:28:07.961Z,4.85
2023-05-24T11:30:38.770Z,3.65
2023-05-24T11:33:05.366Z,9.57
2023-05-24T11:35:32.157Z,6.57
2023-05-24T11:37:58.830Z,7.55
2023-05-24T11:40:26.355Z,7.35
2023-05-24T11:42:53.053Z,5.07
2023-05-24T11:45:20.250Z,7.45
2023-05-24T11:47:49.260Z,6.25
2023-05-24T11:50:17.140Z,6.55
2023-05-24T11:52:44.191Z,8.52
2023-05-24T11:55:16.630Z,9.75
2023-05-24T11:57:54.443Z,6.30
2023-05-24T12:00:28.874Z,8.02
2023-05-24T12:03:01.853Z,7.00
2023-05-24T12:05:31.864Z,9.82
2023-05-24T12:08:06.974Z,8.68
2023-05-24T12:10:37.863Z,8.18
2023-05-24T12:13:05.420Z,9.13
2023-05-24T12:15:32.252Z,6.13
2023-05-24T12:17:59.585Z,8.60
2023-05-24T12:20:30.037Z,10.50
2023-05-24T12:22:56.810Z,9.05
2023-05-24T12:25:26.985Z,6.40
2023-05-24T12:27:55.930Z,8.38
2023-05-24T12:30:28.645Z,12.27
2023-05-24T12:32:55.621Z,8.32
2023-05-24T12:35:22.219Z,7.35
2023-05-24T12:37:49.599Z,7.20
2023-05-24T12:40:20.983Z,8.23
2023-05-24T12:42:56.236Z,7.22
2023-05-24T12:45:27.567Z,8.18
2023-05-24T12:47:58.772Z,8.02
2023-05-24T12:50:26.820Z,8.13
2023-05-24T12:52:53.891Z,10.35
2023-05-24T12:55:23.931Z,9.65
2023-05-24T12:57:54.032Z,5.75
2023-05-24T13:00:24.976Z,8.05
2023-05-24T13:02:53.145Z,7.18
2023-05-24T13:05:19.901Z,7.90
2023-05-24T13:07:46.559Z,8.68
2023-05-24T13:10:13.456Z,7.05
2023-05-24T13:12:41.825Z,6.78
2023-05-24T13:15:09.054Z,9.07
2023-05-24T13:17:36.284Z,9.50
2023-05-24T13:20:06.860Z,7.07
2023-05-24T13:22:35.689Z,6.65
2023-05-24T13:25:03.175Z,8.13
2023-05-24T13:27:36.102Z,8.43
2023-05-24T13:30:02.957Z,9.70
2023-05-24T13:32:29.556Z,8.68
2023-05-24T13:34:56.162Z,4.88
2023-05-24T13:37:23.371Z,9.00
2023-05-24T13:39:50.235Z,9.85
2023-05-24T13:42:17.225Z,6.47
2023-05-24T13:44:43.831Z,6.82
2023-05-24T13:47:10.450Z,7.03
2023-05-24T13:49:39.264Z,7.43
2023-05-24T13:52:06.885Z,6.32
2023-05-24T13:54:33.479Z,10.68
2023-05-24T13:57:02.910Z,9.13
2023-05-24T13:59:29.717Z,6.97
2023-05-24T14:01:56.435Z,11.75
2023-05-24T14:04:23.033Z,9.55
2023-05-24T14:06:49.535Z,8.68
2023-05-24T14:09:16.051Z,8.70
2023-05-24T14:11:42.862Z,7.60
2023-05-24T14:16:39.353Z,10.20
2023-05-24T14:19:06.296Z,7.20
2023-05-24T14:21:33.501Z,5.85
2023-05-24T14:24:00.007Z,8.20
2023-05-24T14:26:32.398Z,9.60
2023-05-24T14:28:59.057Z,10.75
2023-05-24T14:31:26.210Z,8.93
2023-05-24T14:34:09.038Z,8.43
2023-05-24T14:36:36.533Z,9.75
2023-05-24T14:39:03.173Z,7.80
2023-05-24T14:41:29.784Z,10.65
2023-05-24T14:43:56.320Z,8.52
2023-05-24T14:46:25.085Z,9.07
2023-05-24T14:48:52.339Z,8.68
2023-05-24T14:51:19.255Z,8.18
2023-05-24T14:53:45.793Z,8.90
2023-05-24T14:56:15.266Z,10.00
2023-05-24T14:58:42.381Z,7.35
2023-05-24T15:01:08.969Z,7.43
2023-05-24T15:03:36.543Z,8.45
2023-05-24T15:06:05.509Z,7.97
2023-05-24T15:08:33.792Z,5.75
2023-05-24T15:11:01.309Z,9.38
2023-05-24T15:13:27.896Z,11.45
2023-05-24T15:15:56.637Z,10.60
2023-05-24T15:18:25.543Z,8.48
2023-05-24T15:20:52.361Z,9.10
2023-05-24T15:23:21.605Z,8.77
2023-05-24T15:25:48.290Z,9.15
2023-05-24T15:28:18.352Z,8.50
2023-05-24T15:30:46.862Z,11.45
2023-05-24T15:33:14.401Z,11.60
2023-05-24T15:35:41.560Z,9.50
2023-05-24T15:38:08.330Z,10.00
2023-05-24T15:40:36.109Z,8.93
2023-05-24T15:43:02.682Z,10.88
2023-05-24T15:45:29.459Z,9.82
2023-05-24T15:47:56.230Z,9.45
2023-05-24T15:50:35.686Z,10.18
2023-05-24T15:53:11.132Z,8.95
2023-05-24T15:55:38.976Z,13.27
2023-05-24T15:58:05.813Z,12.88
2023-05-24T16:00:34.630Z,10.73
2023-05-24T16:03:01.361Z,10.95
2023-05-24T16:05:28.347Z,14.88
2023-05-24T16:07:55.160Z,10.43
2023-05-24T16:10:22.845Z,12.02
2023-05-24T16:12:49.642Z,11.23
2023-05-24T16:15:18.355Z,7.20
2023-05-24T16:17:45.094Z,15.52
2023-05-24T16:20:13.824Z,11.45
2023-05-24T16:22:52.952Z,10.57
2023-05-24T16:25:20.994Z,12.30
2023-05-24T16:27:47.742Z,8.48
2023-05-24T16:30:16.708Z,12.38
2023-05-24T16:32:45.256Z,10.52
2023-05-24T16:35:11.854Z,9.77
2023-05-24T16:37:39.104Z,11.43
2023-05-24T16:40:07.911Z,14.50
2023-05-24T16:42:34.568Z,11.60
2023-05-24T16:45:01.118Z,9.70
2023-05-24T16:47:29.898Z,11.15
2023-05-24T16:49:56.833Z,9.60
2023-05-24T16:52:24.469Z,11.48
2023-05-24T16:54:51.122Z,11.82
2023-05-24T16:57:17.665Z,11.55
2023-05-24T16:59:45.451Z,12.57
2023-05-24T17:02:11.965Z,9.73
2023-05-24T17:04:46.669Z,8.82
2023-05-24T17:07:13.182Z,10.85
2023-05-24T17:09:39.825Z,12.75
2023-05-24T17:12:07.011Z,14.80
2023-05-24T17:14:34.700Z,10.02
2023-05-24T17:17:01.221Z,11.45
2023-05-24T17:19:32.581Z,8.38
2023-05-24T17:21:59.224Z,9.45
2023-05-24T17:24:27.942Z,9.23
2023-05-24T17:26:55.078Z,12.27
2023-05-24T17:29:24.253Z,10.60
2023-05-24T17:31:58.185Z,11.18
2023-05-24T17:34:25.863Z,8.45
2023-05-24T17:36:52.414Z,12.75
2023-05-24T17:39:20.131Z,9.52
2023-05-24T17:41:46.800Z,14.30
2023-05-24T17:44:13.516Z,11.60
2023-05-24T17:46:41.653Z,10.65
2023-05-24T17:49:08.484Z,9.65
2023-05-24T17:51:35.066Z,11.85
2023-05-24T17:54:01.758Z,12.80
2023-05-24T17:56:30.355Z,10.60
2023-05-24T17:58:57.414Z,10.20
2023-05-24T18:01:24.898Z,12.20
2023-05-24T18:03:51.418Z,13.52
2023-05-24T18:06:17.919Z,11.88
2023-05-24T18:08:44.630Z,11.23
2023-05-24T18:11:13.469Z,10.63
2023-05-24T18:13:41.904Z,11.40
2023-05-24T18:16:10.456Z,12.45
2023-05-24T18:18:40.908Z,10.98
2023-05-24T18:21:09.464Z,9.27
2023-05-24T18:23:39.187Z,15.75
2023-05-24T18:26:10.146Z,10.30
2023-05-24T18:28:37.667Z,12.70
2023-05-24T18:31:08.615Z,10.10
2023-05-24T18:33:35.756Z,9.23
2023-05-24T18:36:04.706Z,12.27
2023-05-24T18:38:33.854Z,12.65
2023-05-24T18:41:00.878Z,12.30
2023-05-24T18:43:27.542Z,9.35
2023-05-24T18:45:54.204Z,9.02
2023-05-24T18:48:21.215Z,13.10
2023-05-24T18:50:50.309Z,15.35
2023-05-24T18:53:16.970Z,11.95
2023-05-24T18:55:43.761Z,9.25
2023-05-24T18:58:10.959Z,12.32
2023-05-24T19:00:37.523Z,14.07
2023-05-24T19:03:04.135Z,9.73
2023-05-24T19:05:30.831Z,11.07
2023-05-24T19:07:57.586Z,12.38
2023-05-24T19:10:24.190Z,12.00
2023-05-24T19:12:50.801Z,9.30
2023-05-24T19:15:17.986Z,11.32
2023-05-24T19:17:47.564Z,9.82
2023-05-24T19:20:14.260Z,12.07
2023-05-24T19:22:41.073Z,13.10
2023-05-24T19:25:09.177Z,13.38
2023-05-24T19:27:37.920Z,13.18
2023-05-24T19:30:07.161Z,8.30
2023-05-24T19:32:35.705Z,12.27
2023-05-24T19:35:02.424Z,9.10
2023-05-24T19:37:29.138Z,9.65
2023-05-24T19:39:55.651Z,12.98
2023-05-24T19:42:22.308Z,12.77
2023-05-24T19:44:48.954Z,10.35
2023-05-24T19:47:16.207Z,11.93
2023-05-24T19:49:43.248Z,9.30
2023-05-24T19:52:10.010Z,13.73
2023-05-24T19:54:37.668Z,8.70
2023-05-24T19:57:05.847Z,12.75
2023-05-24T19:59:32.608Z,13.10
2023-05-24T20:01:59.147Z,15.85
2023-05-24T20:04:25.820Z,13.88
2023-05-24T20:06:53.201Z,19.80
2023-05-24T20:09:19.952Z,17.67
2023-05-24T20:11:46.718Z,18.17
2023-05-24T20:14:13.434Z,11.68
2023-05-24T20:16:40.248Z,18.05
2023-05-24T20:19:06.900Z,18.58
2023-05-24T20:21:33.455Z,18.63
2023-05-24T20:24:00.009Z,17.90
2023-05-24T20:26:26.642Z,18.33
2023-05-24T20:28:53.388Z,17.30
2023-05-24T20:31:20.081Z,16.88
2023-05-24T20:33:46.684Z,19.90
2023-05-24T20:36:15.059Z,16.05
2023-05-24T20:38:44.878Z,15.85
2023-05-24T20:41:12.479Z,17.73
2023-05-24T20:43:39.030Z,17.85
2023-05-24T20:46:05.800Z,21.60
2023-05-24T20:48:32.595Z,19.30
2023-05-24T20:50:59.190Z,16.17
2023-05-24T20:53:25.822Z,18.98
2023-05-24T20:56:03.594Z,18.77
2023-05-24T20:58:31.243Z,18.27
2023-05-24T21:00:57.904Z,14.80
2023-05-24T21:03:24.719Z,18.63
2023-05-24T21:05:51.248Z,18.90
2023-05-24T21:08:18.189Z,19.02
2023-05-24T21:10:44.971Z,19.90
2023-05-24T21:13:11.605Z,16.30
2023-05-24T21:15:38.248Z,20.27
2023-05-24T21:18:05.314Z,19.60
2023-05-24T21:20:31.970Z,19.30
2023-05-24T21:22:58.492Z,18.83
2023-05-24T21:25:25.191Z,20.70
2023-05-24T21:27:51.925Z,25.30
2023-05-24T21:30:18.588Z,23.00
2023-05-24T21:32:45.316Z,22.92
2023-05-24T21:35:12.106Z,20.02
2023-05-24T21:37:38.866Z,21.40
2023-05-24T21:40:06.288Z,20.75
2023-05-24T21:42:32.923Z,25.35
2023-05-24T21:44:59.581Z,23.38
2023-05-24T21:47:26.108Z,22.67
2023-05-24T21:49:54.455Z,17.02
2023-05-24T21:52:25.332Z,22.30
2023-05-24T21:54:51.908Z,20.38
2023-05-24T21:57:18.608Z,17.63
2023-05-24T21:59:46.295Z,20.27
2023-05-24T22:02:14.439Z,19.05
2023-05-24T22:04:41.112Z,22.65
2023-05-24T22:07:07.757Z,21.30
2023-05-24T22:09:34.358Z,22.52
2023-05-24T22:12:01.711Z,23.50
2023-05-24T22:14:28.490Z,23.98
2023-05-24T22:16:55.108Z,26.98
2023-05-24T22:19:31.987Z,18.98
2023-05-24T22:22:06.020Z,25.08
2023-05-24T22:24:32.541Z,14.90
2023-05-24T22:27:01.115Z,17.67
2023-05-24T22:29:27.975Z,24.67
2023-05-24T22:31:54.684Z,23.15
2023-05-24T22:34:29.150Z,21.55
2023-05-24T22:36:57.372Z,17.42
2023-05-24T22:39:24.358Z,22.38
2023-05-24T22:41:52.427Z,19.42
2023-05-24T22:44:20.449Z,22.85
2023-05-24T22:46:49.682Z,19.13
2023-05-24T22:49:19.375Z,20.77
2023-05-24T22:51:50.686Z,16.17
2023-05-24T22:54:17.364Z,17.02
2023-05-24T22:56:44.199Z,23.08
2023-05-24T22:59:12.261Z,18.70
2023-05-24T23:01:39.009Z,19.15
2023-05-24T23:04:20.326Z,19.08
2023-05-24T23:06:48.861Z,17.95
2023-05-24T23:09:15.606Z,22.17
2023-05-24T23:11:42.961Z,19.35
2023-05-24T23:14:11.340Z,19.90
2023-05-24T23:16:45.538Z,18.02
2023-05-24T23:19:18.074Z,20.40
2023-05-24T23:21:45.078Z,17.25
2023-05-24T23:24:14.419Z,22.70
2023-05-24T23:26:42.156Z,21.05
2023-05-24T23:29:09.308Z,21.13
2023-05-24T23:31:36.157Z,18.50
2023-05-24T23:34:02.865Z,18.35
2023-05-24T23:36:29.408Z,16.88
2023-05-24T23:38:55.944Z,19.10
2023-05-24T23:41:22.558Z,16.63
2023-05-24T23:43:49.193Z,16.80
2023-05-24T23:46:19.185Z,17.10
2023-05-24T23:48:46.150Z,20.00
2023-05-24T23:51:12.944Z,22.50
2023-05-24T23:53:39.510Z,15.07
2023-05-24T23:56:06.197Z,17.73
2023-05-24T23:58:34.147Z,19.85
